Time;durP1;ratioP1;P1;durP2;ratioP2;P2;SDS_P1;SDS_P2;PMS_P1;PMS_P2;Temp;Humidity;BMP_temperature;BMP_pressure;BME280_temperature;BME280_humidity;BME280_pressure;Samples;Min_cycle;Max_cycle;Signal;HPM_P1;HPM_P2
2022/05/21 00:02:05;;;;;;;122.15;110.43;;;12.30;98.30;;;;;;4975500;28;20134;-74
2022/05/21 00:04:32;;;;;;;120.85;109.22;;;12.20;98.30;;;;;;4975440;28;20047;-74
2022/05/21 00:07:00;;;;;;;120.80;109.53;;;12.20;98.30;;;;;;4975627;28;20050;-74
2022/05/21 00:09:28;;;;;;;121.32;110.00;;;12.20;98.40;;;;;;4993338;28;20063;-74
2022/05/21 00:11:55;;;;;;;119.40;108.05;;;12.20;98.40;;;;;;4993907;28;20054;-74
2022/05/21 00:14:22;;;;;;;123.28;111.45;;;12.20;98.40;;;;;;5031929;23;20141;-74
2022/05/21 00:16:49;;;;;;;124.15;112.45;;;12.20;98.40;;;;;;4979363;28;20081;-74
2022/05/21 00:19:17;;;;;;;123.78;112.18;;;12.20;98.40;;;;;;4979012;28;20051;-74
2022/05/21 00:21:44;;;;;;;126.28;114.35;;;12.20;98.40;;;;;;4996570;28;20054;-74
2022/05/21 00:24:12;;;;;;;126.35;114.13;;;12.20;98.50;;;;;;4978837;28;20047;-74
2022/05/21 00:26:39;;;;;;;129.02;116.90;;;12.20;98.60;;;;;;4978705;28;20058;-74
2022/05/21 00:29:06;;;;;;;131.02;118.72;;;12.20;98.60;;;;;;4996357;28;20129;-74
2022/05/21 00:32:05;;;;;;;127.63;115.32;;;12.20;98.60;;;;;;4980135;28;20105;-74
2022/05/21 00:34:34;;;;;;;131.40;118.60;;;12.20;98.60;;;;;;4994961;28;20047;-74
2022/05/21 00:37:01;;;;;;;131.35;118.70;;;12.20;98.70;;;;;;4999225;28;20050;-75
2022/05/21 00:39:30;;;;;;;134.80;121.70;;;12.20;98.70;;;;;;4997834;28;20046;-74
2022/05/21 00:42:04;;;;;;;139.20;125.50;;;12.20;98.90;;;;;;4995982;28;20043;-74
2022/05/21 00:44:30;;;;;;;134.88;121.70;;;12.20;98.80;;;;;;4978734;28;20049;-74
2022/05/21 00:46:57;;;;;;;138.60;124.78;;;12.20;99.00;;;;;;4978363;28;20051;-74
2022/05/21 00:49:27;;;;;;;138.07;124.38;;;12.20;99.00;;;;;;4978388;28;20090;-74
2022/05/21 00:51:58;;;;;;;136.38;123.07;;;12.20;99.10;;;;;;4996253;28;20145;-74
2022/05/21 00:54:31;;;;;;;135.32;122.00;;;12.30;99.30;;;;;;4978505;28;20079;-74
2022/05/21 00:57:02;;;;;;;138.45;124.88;;;12.20;99.10;;;;;;4978325;28;20138;-74
2022/05/21 00:59:47;;;;;;;136.38;123.05;;;12.30;99.20;;;;;;4978345;28;20163;-74
2022/05/21 01:02:16;;;;;;;137.32;123.65;;;12.30;99.20;;;;;;4996095;28;20149;-74
2022/05/21 01:04:44;;;;;;;136.10;122.30;;;12.30;99.20;;;;;;4977936;28;20949;-74
2022/05/21 01:07:14;;;;;;;138.55;125.22;;;12.30;99.20;;;;;;4977670;28;20054;-74
2022/05/21 01:09:50;;;;;;;137.32;124.03;;;12.30;99.20;;;;;;4978035;28;20050;-74
2022/05/21 01:12:17;;;;;;;139.90;126.03;;;12.30;99.30;;;;;;4977994;28;20134;-74
2022/05/21 01:14:48;;;;;;;140.23;126.40;;;12.30;99.30;;;;;;4995322;28;20065;-74
2022/05/21 01:17:17;;;;;;;145.55;131.25;;;12.30;99.40;;;;;;4976905;28;20053;-74
2022/05/21 01:20:00;;;;;;;144.57;130.23;;;12.40;99.40;;;;;;4978179;28;20579;-74
2022/05/21 01:22:29;;;;;;;145.90;130.95;;;12.40;99.40;;;;;;4975753;28;20051;-74
2022/05/21 01:24:56;;;;;;;148.23;133.20;;;12.40;99.40;;;;;;4977309;28;20053;-74
2022/05/21 01:27:25;;;;;;;149.38;134.13;;;12.40;99.50;;;;;;4977485;28;20137;-74
2022/05/21 01:29:54;;;;;;;147.38;132.63;;;12.50;99.50;;;;;;4978130;28;20051;-74
2022/05/21 01:32:21;;;;;;;147.55;132.77;;;12.50;99.60;;;;;;4977206;28;20054;-74
2022/05/21 01:34:48;;;;;;;148.07;133.05;;;12.50;99.60;;;;;;4977514;28;20050;-74
2022/05/21 01:37:15;;;;;;;145.43;130.63;;;12.50;99.60;;;;;;4994663;28;20137;-74
2022/05/21 01:39:44;;;;;;;145.88;131.60;;;12.50;99.60;;;;;;4978096;28;20063;-74
2022/05/21 01:42:11;;;;;;;148.27;133.50;;;12.50;99.60;;;;;;4975828;28;20078;-74
2022/05/21 01:44:39;;;;;;;148.43;133.63;;;12.60;99.70;;;;;;4975862;28;20043;-74
2022/05/21 01:47:08;;;;;;;151.15;136.00;;;12.60;99.70;;;;;;4975181;28;20047;-74
2022/05/21 01:49:35;;;;;;;151.95;136.88;;;12.60;99.60;;;;;;4976419;28;20481;-74
2022/05/21 01:52:02;;;;;;;148.32;133.10;;;12.60;99.70;;;;;;4975869;28;20089;-74
2022/05/21 01:54:29;;;;;;;145.88;131.07;;;12.60;99.70;;;;;;4977286;28;20425;-74
2022/05/21 01:56:58;;;;;;;147.95;133.25;;;12.70;99.70;;;;;;4977263;28;20046;-74
2022/05/21 01:59:25;;;;;;;148.88;134.18;;;12.70;99.80;;;;;;4977229;28;20057;-74
2022/05/21 02:01:52;;;;;;;148.90;134.13;;;12.70;99.80;;;;;;4977225;28;20054;-74
2022/05/21 02:04:20;;;;;;;152.68;137.13;;;12.70;99.80;;;;;;4977302;28;20058;-74
2022/05/21 02:06:48;;;;;;;151.02;135.73;;;12.70;99.80;;;;;;4994595;28;20054;-74
2022/05/21 02:09:16;;;;;;;150.75;135.70;;;12.70;99.80;;;;;;4994513;28;20061;-74
2022/05/21 02:11:44;;;;;;;149.27;134.45;;;12.70;99.90;;;;;;4994725;28;20500;-74
2022/05/21 02:14:13;;;;;;;152.10;136.68;;;12.80;99.80;;;;;;4994756;28;20054;-75
2022/05/21 02:16:40;;;;;;;151.13;136.57;;;12.80;99.90;;;;;;4994677;28;20059;-74
2022/05/21 02:19:08;;;;;;;151.07;136.13;;;12.70;99.80;;;;;;4976935;28;20081;-74
2022/05/21 02:21:38;;;;;;;151.73;136.35;;;12.80;99.90;;;;;;4976839;28;20055;-74
2022/05/21 02:24:07;;;;;;;151.25;136.45;;;12.80;99.90;;;;;;4983570;28;20133;-74
2022/05/21 02:26:35;;;;;;;153.65;139.02;;;12.80;99.90;;;;;;4996320;28;20050;-75
2022/05/21 02:29:02;;;;;;;153.57;138.25;;;12.80;99.90;;;;;;4996202;28;20515;-74
2022/05/21 02:31:31;;;;;;;154.50;139.43;;;12.90;99.90;;;;;;4995950;28;20054;-74
2022/05/21 02:33:58;;;;;;;154.38;139.27;;;12.90;99.90;;;;;;4996340;28;20512;-74
2022/05/21 02:39:40;;;;;;;151.25;135.82;;;12.90;99.90;;;;;;5012716;28;20054;-74
2022/05/21 02:42:43;;;;;;;155.05;140.07;;;12.90;99.90;;;;;;4984992;28;20531;-74
2022/05/21 02:44:55;;;;;;;151.98;136.77;;;12.90;99.90;;;;;;4974960;28;20051;-74
2022/05/21 02:47:25;;;;;;;151.10;135.95;;;13.00;99.90;;;;;;4980648;28;20050;-75
2022/05/21 02:49:51;;;;;;;155.23;139.90;;;13.00;99.90;;;;;;4994045;28;20050;-75
2022/05/21 02:52:18;;;;;;;152.32;137.70;;;13.00;99.90;;;;;;5006484;28;20042;-74
2022/05/21 02:54:45;;;;;;;150.68;135.73;;;13.00;99.90;;;;;;4993668;28;20047;-75
2022/05/21 02:57:12;;;;;;;155.40;140.65;;;13.00;99.90;;;;;;4995140;28;20057;-74
2022/05/21 02:59:40;;;;;;;149.10;134.40;;;13.00;99.90;;;;;;5011123;28;20088;-75
2022/05/21 03:02:07;;;;;;;149.23;134.90;;;13.00;99.90;;;;;;4989054;28;20057;-74
2022/05/21 03:04:36;;;;;;;150.82;136.07;;;13.00;99.90;;;;;;4979515;28;20081;-74
2022/05/21 03:07:04;;;;;;;151.43;136.63;;;13.00;99.90;;;;;;5012032;28;20049;-74
2022/05/21 03:12:13;;;;;;;148.45;134.10;;;13.10;99.90;;;;;;4987128;28;20124;-74
2022/05/21 03:14:40;;;;;;;149.00;134.43;;;13.10;99.90;;;;;;4986062;28;20051;-75
2022/05/21 03:17:07;;;;;;;153.65;138.70;;;13.10;99.90;;;;;;4959027;28;20050;-74
2022/05/21 03:19:36;;;;;;;149.07;134.50;;;13.10;99.90;;;;;;4991851;28;20063;-74
2022/05/21 03:22:03;;;;;;;149.27;134.70;;;13.20;99.90;;;;;;4974211;28;20057;-75
2022/05/21 03:24:31;;;;;;;148.38;133.95;;;13.10;99.90;;;;;;4991695;28;20059;-74
2022/05/21 03:26:58;;;;;;;151.63;137.13;;;13.20;99.90;;;;;;4991310;28;20058;-74
2022/05/21 03:29:25;;;;;;;149.15;134.18;;;13.20;99.90;;;;;;4991907;28;20106;-76
2022/05/21 03:31:52;;;;;;;149.15;134.60;;;13.20;99.90;;;;;;4976302;28;20047;-75
2022/05/21 03:34:19;;;;;;;142.90;129.32;;;13.20;99.90;;;;;;5011647;28;20075;-74
2022/05/21 03:36:47;;;;;;;146.70;131.95;;;13.30;99.90;;;;;;5012788;28;20061;-74
2022/05/21 03:39:14;;;;;;;142.80;128.63;;;13.30;99.90;;;;;;5011486;28;20600;-75
2022/05/21 03:41:41;;;;;;;144.43;130.50;;;13.30;99.90;;;;;;5011504;28;20055;-74
2022/05/21 03:44:08;;;;;;;137.43;123.68;;;13.30;99.90;;;;;;5011426;28;20051;-75
2022/05/21 03:46:38;;;;;;;137.52;124.07;;;13.30;99.90;;;;;;5011939;28;20178;-74
2022/05/21 03:49:05;;;;;;;137.68;124.05;;;13.30;99.90;;;;;;5015155;28;20746;-75
2022/05/21 03:51:33;;;;;;;137.43;123.30;;;13.40;99.90;;;;;;5016656;28;20154;-74
2022/05/21 03:54:01;;;;;;;138.25;124.03;;;13.40;99.90;;;;;;5015245;28;20051;-74
2022/05/21 03:56:28;;;;;;;137.32;123.15;;;13.40;99.90;;;;;;4998845;28;20501;-74
2022/05/21 03:58:55;;;;;;;136.73;122.63;;;13.40;99.90;;;;;;5016302;28;20137;-75
2022/05/21 04:01:22;;;;;;;133.57;120.35;;;13.40;99.90;;;;;;5016301;28;20082;-75
2022/05/21 04:03:50;;;;;;;134.05;120.50;;;13.50;99.90;;;;;;5014673;28;20051;-75
2022/05/21 04:06:17;;;;;;;133.95;119.82;;;13.50;99.90;;;;;;5014319;28;20101;-75
2022/05/21 04:08:44;;;;;;;133.43;119.55;;;13.50;99.90;;;;;;5014724;28;20050;-74
2022/05/21 04:11:12;;;;;;;132.05;118.70;;;13.50;99.90;;;;;;4998405;28;20062;-75
2022/05/21 04:13:39;;;;;;;131.00;117.53;;;13.50;99.90;;;;;;5014689;28;20055;-75
2022/05/21 04:16:06;;;;;;;126.32;113.93;;;13.60;99.90;;;;;;4998675;28;20047;-74
2022/05/21 04:18:33;;;;;;;126.85;113.63;;;13.60;99.90;;;;;;5014325;28;20047;-75
2022/05/21 04:21:00;;;;;;;125.60;112.65;;;13.60;99.90;;;;;;5016239;28;20054;-75
2022/05/21 04:23:27;;;;;;;126.28;113.63;;;13.70;99.90;;;;;;5014758;28;20055;-75
2022/05/21 04:25:54;;;;;;;124.88;112.32;;;13.70;99.80;;;;;;5014801;28;20050;-75
2022/05/21 04:28:22;;;;;;;125.13;112.30;;;13.70;99.80;;;;;;5013644;28;20071;-75
2022/05/21 04:30:49;;;;;;;125.78;112.55;;;13.70;99.70;;;;;;5014052;28;20055;-75
2022/05/21 04:33:16;;;;;;;125.45;112.82;;;13.70;99.60;;;;;;5014536;28;20042;-75
2022/05/21 04:38:27;;;;;;;123.55;111.20;;;13.80;99.50;;;;;;5014373;28;20049;-74
2022/05/21 04:40:54;;;;;;;123.35;110.68;;;13.80;99.50;;;;;;5012772;28;20581;-74
2022/05/21 04:43:22;;;;;;;124.25;111.63;;;13.80;99.40;;;;;;5015885;28;20084;-74
2022/05/21 04:45:49;;;;;;;125.43;112.32;;;13.80;99.50;;;;;;5014323;28;20042;-75
2022/05/21 04:48:16;;;;;;;126.40;113.03;;;13.80;99.40;;;;;;5014140;28;20050;-75
2022/05/21 04:50:43;;;;;;;123.90;111.35;;;13.80;99.30;;;;;;4998292;28;20054;-75
2022/05/21 04:53:10;;;;;;;125.00;112.53;;;13.80;99.30;;;;;;5015726;28;20062;-75
2022/05/21 04:55:37;;;;;;;124.70;111.78;;;13.80;99.30;;;;;;5014045;28;20966;-75
2022/05/21 04:58:04;;;;;;;124.93;111.68;;;13.80;99.30;;;;;;5014299;28;20137;-77
2022/05/21 05:00:32;;;;;;;124.88;112.07;;;13.80;99.30;;;;;;4996653;28;20137;-75
2022/05/21 05:02:59;;;;;;;126.95;114.25;;;13.80;99.30;;;;;;5015141;28;20532;-75
2022/05/21 05:05:26;;;;;;;125.40;112.93;;;13.80;99.30;;;;;;5014278;28;20050;-75
2022/05/21 05:07:53;;;;;;;127.10;114.57;;;13.80;99.20;;;;;;5014964;28;20121;-75
2022/05/21 05:10:20;;;;;;;128.82;115.70;;;13.90;99.30;;;;;;5014038;28;20050;-75
2022/05/21 05:12:47;;;;;;;127.20;114.78;;;13.90;99.20;;;;;;4997655;28;20051;-75
2022/05/21 05:15:14;;;;;;;126.60;113.95;;;13.90;99.10;;;;;;5013094;28;20061;-75
2022/05/21 05:17:42;;;;;;;126.38;113.78;;;13.90;99.00;;;;;;5013876;28;20043;-75
2022/05/21 05:20:09;;;;;;;125.95;113.65;;;13.90;99.10;;;;;;5014125;28;20050;-75
2022/05/21 05:22:36;;;;;;;128.70;115.72;;;13.90;99.20;;;;;;4997285;28;20117;-75
2022/05/21 05:25:04;;;;;;;129.10;116.05;;;13.90;99.20;;;;;;5015274;28;20149;-75
2022/05/21 05:27:31;;;;;;;126.93;114.88;;;14.00;99.00;;;;;;5013659;28;20057;-75
2022/05/21 05:29:58;;;;;;;126.15;113.75;;;14.00;98.90;;;;;;5014030;28;20524;-75
2022/05/21 05:32:25;;;;;;;129.15;116.13;;;14.00;99.00;;;;;;5013566;28;20054;-75
2022/05/21 05:34:53;;;;;;;126.38;114.07;;;14.00;99.00;;;;;;5014156;28;20050;-75
2022/05/21 05:37:20;;;;;;;127.45;114.53;;;14.10;98.90;;;;;;5013569;28;20105;-76
2022/05/21 05:39:47;;;;;;;126.10;113.88;;;14.10;98.80;;;;;;4997088;28;20133;-75
2022/05/21 05:42:14;;;;;;;126.07;113.57;;;14.10;98.70;;;;;;5013125;28;20062;-75
2022/05/21 05:44:41;;;;;;;125.72;113.70;;;14.10;98.50;;;;;;5013128;28;20053;-75
2022/05/21 05:47:08;;;;;;;125.55;113.50;;;14.10;98.60;;;;;;5014514;28;20130;-75
2022/05/21 05:49:35;;;;;;;127.43;114.88;;;14.20;98.40;;;;;;4995763;28;20042;-75
2022/05/21 05:52:04;;;;;;;128.27;115.28;;;14.20;98.50;;;;;;4997089;28;20537;-75
2022/05/21 05:54:33;;;;;;;128.48;116.03;;;14.20;98.40;;;;;;5013684;28;20054;-75
2022/05/21 05:56:59;;;;;;;125.35;113.18;;;14.30;98.30;;;;;;5014637;28;20133;-75
2022/05/21 06:04:55;;;;;;;125.38;113.18;;;14.30;98.00;;;;;;5011494;28;20057;-75
2022/05/21 06:07:23;;;;;;;125.35;112.88;;;14.30;98.10;;;;;;4977214;28;20058;-75
2022/05/21 06:09:51;;;;;;;125.47;112.85;;;14.30;98.30;;;;;;4992960;28;20051;-75
2022/05/21 06:12:18;;;;;;;126.22;113.80;;;14.40;98.30;;;;;;4992553;28;20059;-75
2022/05/21 06:14:46;;;;;;;125.95;113.78;;;14.40;98.10;;;;;;4993811;28;20061;-75
2022/05/21 06:17:14;;;;;;;127.13;114.65;;;14.40;98.10;;;;;;5009180;28;20062;-76
2022/05/21 06:19:41;;;;;;;125.03;112.43;;;14.50;98.00;;;;;;4995203;28;20129;-75
2022/05/21 06:22:08;;;;;;;124.22;112.00;;;14.50;97.80;;;;;;5010921;28;20053;-75
2022/05/21 06:24:38;;;;;;;127.32;114.68;;;14.50;97.80;;;;;;5012630;28;20050;-77
2022/05/21 06:27:06;;;;;;;126.70;114.13;;;14.50;97.90;;;;;;5013805;28;20082;-77
2022/05/21 06:29:35;;;;;;;125.75;113.40;;;14.50;98.00;;;;;;4996428;28;20054;-76
2022/05/21 06:32:03;;;;;;;124.65;112.55;;;14.60;98.10;;;;;;4989914;28;20070;-76
2022/05/21 06:34:30;;;;;;;124.80;112.50;;;14.60;98.10;;;;;;4981295;28;20057;-76
2022/05/21 06:37:02;;;;;;;124.30;112.07;;;14.60;97.70;;;;;;4990871;28;20057;-75
2022/05/21 06:39:31;;;;;;;122.38;110.53;;;14.70;97.60;;;;;;4999537;28;20057;-75
2022/05/21 06:41:59;;;;;;;125.13;113.25;;;14.70;97.60;;;;;;4998046;28;20525;-75
2022/05/21 06:44:28;;;;;;;124.13;112.07;;;14.70;97.60;;;;;;4977016;28;20134;-75
2022/05/21 06:46:55;;;;;;;122.82;110.95;;;14.70;97.60;;;;;;4993752;28;20121;-76
2022/05/21 06:49:22;;;;;;;125.00;112.72;;;14.80;97.60;;;;;;4979553;28;20061;-76
2022/05/21 06:51:53;;;;;;;124.22;111.50;;;14.80;97.40;;;;;;5005371;28;20133;-75
2022/05/21 06:54:20;;;;;;;125.65;113.25;;;14.80;97.30;;;;;;4995505;28;20046;-75
2022/05/21 06:56:47;;;;;;;121.38;109.38;;;14.80;97.10;;;;;;4991849;28;20054;-75
2022/05/21 06:59:16;;;;;;;123.72;111.68;;;14.80;97.10;;;;;;5013113;28;20064;-75
2022/05/21 07:01:43;;;;;;;126.30;114.45;;;14.90;97.10;;;;;;5012061;28;20042;-74
2022/05/21 07:04:14;;;;;;;126.28;114.20;;;14.90;97.10;;;;;;4995867;28;20050;-75
2022/05/21 07:09:25;;;;;;;;;;;15.00;96.80;;;;;;5013962;28;20131;-75
2022/05/21 07:11:52;;;;;;;120.40;108.47;;;15.00;96.50;;;;;;4990184;28;19929;-75
2022/05/21 07:14:21;;;;;;;125.32;112.80;;;15.00;96.40;;;;;;5009079;28;20054;-75
2022/05/21 07:16:50;;;;;;;123.88;111.90;;;15.10;96.30;;;;;;5001580;28;20138;-74
2022/05/21 07:19:17;;;;;;;123.97;112.07;;;15.10;96.10;;;;;;4977387;28;20054;-76
2022/05/21 07:21:43;;;;;;;124.13;112.28;;;15.10;96.20;;;;;;4975403;28;20559;-76
2022/05/21 07:24:10;;;;;;;120.70;109.13;;;15.10;96.20;;;;;;4975223;28;20038;-76
2022/05/21 07:26:37;;;;;;;125.45;113.45;;;15.10;96.30;;;;;;4975278;28;20054;-76
2022/05/21 07:29:06;;;;;;;124.22;112.22;;;15.10;96.40;;;;;;4975619;28;20129;-75
2022/05/21 07:31:35;;;;;;;124.63;113.00;;;15.10;95.90;;;;;;4994267;28;20039;-76
2022/05/21 07:34:01;;;;;;;127.55;115.45;;;15.10;95.70;;;;;;4995257;28;20975;-76
2022/05/21 07:36:29;;;;;;;123.97;112.68;;;15.10;95.90;;;;;;5000642;28;20410;-76
2022/05/21 07:38:55;;;;;;;124.40;112.53;;;15.10;95.60;;;;;;4975434;28;20047;-75
2022/05/21 07:41:22;;;;;;;124.70;113.00;;;15.10;95.80;;;;;;4993121;28;20567;-75
2022/05/21 07:43:49;;;;;;;124.40;112.95;;;15.10;95.90;;;;;;4975232;28;20043;-76
2022/05/21 07:46:16;;;;;;;125.43;113.90;;;15.10;96.10;;;;;;5006915;28;20055;-75
2022/05/21 07:48:44;;;;;;;127.65;115.40;;;15.20;95.70;;;;;;4973902;28;20049;-75
2022/05/21 07:51:11;;;;;;;124.85;113.65;;;15.20;95.30;;;;;;4990241;28;20129;-75
2022/05/21 07:53:41;;;;;;;124.25;112.75;;;15.20;95.00;;;;;;4974063;28;20050;-75
2022/05/21 07:56:11;;;;;;;122.63;111.35;;;15.30;94.90;;;;;;4990195;28;20055;-76
2022/05/21 07:58:39;;;;;;;125.47;113.97;;;15.30;94.50;;;;;;4975425;28;20059;-75
2022/05/21 08:01:08;;;;;;;126.15;114.60;;;15.30;94.70;;;;;;4992609;28;20090;-75
2022/05/21 08:03:35;;;;;;;124.30;112.85;;;15.30;94.50;;;;;;4993469;28;20507;-75
2022/05/21 08:06:03;;;;;;;123.07;111.60;;;15.30;94.90;;;;;;5010608;28;21030;-76
2022/05/21 08:08:30;;;;;;;126.20;114.60;;;15.30;94.60;;;;;;4993110;28;20058;-76
2022/05/21 08:10:57;;;;;;;128.93;117.07;;;15.30;94.50;;;;;;5008647;28;20050;-78
2022/05/21 08:13:24;;;;;;;131.35;119.68;;;15.30;94.40;;;;;;5007730;28;20102;-75
2022/05/21 08:15:52;;;;;;;128.57;116.93;;;15.40;94.50;;;;;;5007544;28;20116;-76
2022/05/21 08:18:19;;;;;;;129.02;117.28;;;15.40;94.20;;;;;;4992383;28;20043;-75
2022/05/21 08:20:45;;;;;;;126.97;115.38;;;15.40;94.30;;;;;;5010319;28;20075;-78
2022/05/21 08:28:45;;;;;;;121.85;110.20;;;15.50;94.20;;;;;;4977655;28;20083;-75
2022/05/21 08:31:12;;;;;;;122.70;111.32;;;15.60;93.80;;;;;;5002434;28;20058;-77
2022/05/21 08:33:38;;;;;;;123.22;112.00;;;15.60;93.00;;;;;;5000273;28;20046;-78
2022/05/21 08:36:06;;;;;;;128.00;116.43;;;15.60;93.00;;;;;;4976561;28;20057;-78
2022/05/21 08:38:34;;;;;;;123.50;112.20;;;15.60;92.90;;;;;;4991190;28;20058;-76
2022/05/21 08:41:04;;;;;;;124.03;112.70;;;15.60;93.30;;;;;;5007780;28;20047;-76
2022/05/21 08:43:43;;;;;;;122.47;111.43;;;15.70;92.70;;;;;;5004701;28;20104;-76
2022/05/21 08:46:20;;;;;;;124.40;113.05;;;15.70;92.90;;;;;;4987355;28;20523;-78
2022/05/21 08:48:54;;;;;;;124.97;113.68;;;15.60;93.10;;;;;;4999917;28;20050;-76
2022/05/21 08:51:24;;;;;;;122.80;111.72;;;15.70;93.30;;;;;;4994385;28;20047;-76
2022/05/21 08:53:54;;;;;;;124.90;113.55;;;15.70;93.30;;;;;;4994657;28;20129;-76
2022/05/21 08:56:22;;;;;;;126.97;115.47;;;15.80;93.00;;;;;;4983292;28;20046;-76
2022/05/21 08:58:53;;;;;;;127.63;115.85;;;15.80;93.20;;;;;;5014874;28;20065;-76
2022/05/21 09:01:22;;;;;;;126.18;114.93;;;15.80;93.60;;;;;;4984962;28;20569;-77
2022/05/21 09:03:50;;;;;;;124.55;113.35;;;15.80;93.20;;;;;;4986986;28;20105;-78
2022/05/21 09:06:29;;;;;;;126.43;114.75;;;15.90;93.20;;;;;;4982900;28;20046;-78
2022/05/21 09:09:04;;;;;;;130.60;119.22;;;15.90;92.70;;;;;;4987732;28;20137;-78
2022/05/21 09:11:39;;;;;;;124.68;113.32;;;15.90;92.60;;;;;;5004859;28;20100;-78
2022/05/21 09:14:13;;;;;;;129.27;118.03;;;16.00;92.10;;;;;;5005389;28;20570;-77
2022/05/21 09:16:56;;;;;;;125.75;114.18;;;16.10;91.90;;;;;;4993006;28;20056;-80
2022/05/21 09:19:29;;;;;;;127.43;115.72;;;16.10;92.10;;;;;;4989062;28;20088;-78
2022/05/21 09:22:01;;;;;;;123.65;112.05;;;16.10;91.70;;;;;;4990646;28;20054;-79
2022/05/21 09:24:42;;;;;;;123.20;111.72;;;16.10;91.10;;;;;;4991048;28;20072;-79
2022/05/21 09:27:27;;;;;;;126.85;115.07;;;16.10;91.40;;;;;;5003614;28;20058;-76
2022/05/21 09:30:11;;;;;;;123.20;111.82;;;16.00;92.10;;;;;;4991551;28;20061;-78
2022/05/21 09:32:39;;;;;;;129.40;117.90;;;16.00;91.80;;;;;;4979516;28;20544;-78
2022/05/21 09:35:09;;;;;;;130.38;118.97;;;16.00;91.60;;;;;;4992240;28;20050;-79
2022/05/21 09:37:37;;;;;;;127.50;116.30;;;16.00;91.40;;;;;;4994469;28;20054;-77
2022/05/21 09:40:24;;;;;;;126.15;114.80;;;16.00;90.80;;;;;;5000900;28;20523;-75
2022/05/21 09:45:37;;;;;;;125.18;113.57;;;16.00;91.30;;;;;;5001237;28;20573;-76
2022/05/21 09:48:22;;;;;;;126.97;115.07;;;16.10;91.40;;;;;;5007276;28;20050;-76
2022/05/21 09:50:53;;;;;;;126.70;115.63;;;16.10;91.30;;;;;;4994933;28;20051;-77
2022/05/21 09:53:30;;;;;;;125.25;113.70;;;16.10;90.40;;;;;;4994466;28;20799;-77
2022/05/21 09:56:01;;;;;;;124.85;113.28;;;16.10;90.40;;;;;;4993628;28;20070;-77
2022/05/21 09:58:32;;;;;;;128.38;116.88;;;16.10;90.50;;;;;;4986284;28;20050;-76
2022/05/21 10:01:00;;;;;;;127.75;115.88;;;16.10;91.10;;;;;;5010893;28;20082;-77
2022/05/21 10:03:38;;;;;;;128.15;116.70;;;16.00;91.70;;;;;;4962724;28;20138;-77
2022/05/21 10:06:15;;;;;;;128.88;117.28;;;16.10;91.60;;;;;;4983197;28;20137;-78
2022/05/21 10:11:34;;;;;;;123.65;112.15;;;16.20;91.30;;;;;;4984956;28;20050;-78
2022/05/21 10:14:05;;;;;;;124.20;112.93;;;16.20;91.30;;;;;;4979592;28;20055;-77
2022/05/21 10:16:36;;;;;;;123.53;111.65;;;16.20;91.30;;;;;;4991594;28;20055;-77
2022/05/21 10:19:12;;;;;;;121.45;110.45;;;16.30;90.40;;;;;;5013864;28;21045;-77
2022/05/21 10:21:50;;;;;;;123.50;112.32;;;16.30;89.30;;;;;;5012436;28;20066;-76
2022/05/21 10:24:23;;;;;;;126.78;115.47;;;16.30;88.20;;;;;;4996091;28;20050;-77
2022/05/21 10:27:04;;;;;;;126.25;115.05;;;16.30;89.40;;;;;;4992732;28;20058;-77
2022/05/21 10:29:48;;;;;;;126.57;115.20;;;16.30;90.40;;;;;;5002653;28;20147;-76
2022/05/21 10:32:28;;;;;;;129.98;118.22;;;16.40;90.60;;;;;;5005969;28;20097;-76
2022/05/21 10:35:04;;;;;;;124.97;113.57;;;16.30;91.90;;;;;;4976618;28;20933;-77
2022/05/21 10:37:52;;;;;;;125.65;114.55;;;16.40;91.70;;;;;;4984107;28;20054;-77
2022/05/21 10:40:29;;;;;;;122.88;111.60;;;16.50;91.20;;;;;;4992058;28;20053;-77
2022/05/21 10:43:17;;;;;;;127.85;116.85;;;16.50;89.50;;;;;;5003634;28;20544;-78
2022/05/21 10:45:53;;;;;;;128.73;117.70;;;16.50;89.10;;;;;;5009004;28;20054;-78
2022/05/21 10:48:51;;;;;;;127.25;116.20;;;16.50;89.50;;;;;;4985273;28;20072;-78
2022/05/21 10:51:21;;;;;;;123.95;113.22;;;16.70;88.70;;;;;;4989480;28;20050;-78
2022/05/21 10:54:08;;;;;;;125.68;114.82;;;16.70;89.60;;;;;;5011812;28;20058;-76
2022/05/21 10:56:45;;;;;;;128.45;117.60;;;16.70;89.00;;;;;;5005695;28;20062;-75
2022/05/21 10:59:30;;;;;;;131.90;120.72;;;16.80;89.00;;;;;;5003052;28;20050;-74
2022/05/21 11:02:11;;;;;;;128.73;117.75;;;16.90;89.90;;;;;;5009371;28;20130;-76
2022/05/21 11:04:58;;;;;;;124.90;114.07;;;17.00;87.50;;;;;;4996200;28;20087;-76
2022/05/21 11:07:41;;;;;;;126.60;115.95;;;17.00;87.20;;;;;;4994548;28;20178;-76
2022/05/21 11:10:17;;;;;;;123.45;112.45;;;17.00;86.20;;;;;;4987719;28;20054;-76
2022/05/21 11:12:52;;;;;;;126.45;115.75;;;17.10;87.30;;;;;;4991299;28;20516;-75
2022/05/21 11:15:31;;;;;;;130.27;119.20;;;17.20;86.50;;;;;;4988337;28;20058;-76
2022/05/21 11:18:04;;;;;;;129.77;118.93;;;17.20;86.00;;;;;;4999941;28;20065;-76
2022/05/21 11:20:36;;;;;;;130.60;119.60;;;17.30;84.30;;;;;;4996006;28;20088;-76
2022/05/21 11:23:07;;;;;;;132.57;121.30;;;17.30;86.20;;;;;;5011182;28;20109;-76
2022/05/21 11:25:38;;;;;;;130.05;119.00;;;17.40;86.20;;;;;;4995234;28;20548;-76
2022/05/21 11:28:22;;;;;;;125.47;113.53;;;17.40;86.40;;;;;;5013278;28;20136;-76
2022/05/21 11:30:52;;;;;;;129.40;117.80;;;17.50;83.30;;;;;;4978412;28;20046;-76
2022/05/21 11:38:58;;;;;;;131.80;121.20;;;17.50;79.30;;;;;;5008333;28;20051;-79
2022/05/21 11:42:00;;;;;;;130.00;119.18;;;17.50;77.40;;;;;;4995072;28;20098;-79
2022/05/21 11:47:43;;;;;;;131.07;120.38;;;17.40;80.80;;;;;;4978382;28;20053;-78
2022/05/21 11:50:28;;;;;;;127.75;117.30;;;17.40;80.80;;;;;;4995182;28;20057;-76
2022/05/21 11:53:33;;;;;;;128.57;117.65;;;17.50;81.90;;;;;;4978353;28;20050;-77
2022/05/21 11:56:08;;;;;;;128.80;118.03;;;17.50;81.60;;;;;;4993908;28;20153;-76
2022/05/21 11:59:17;;;;;;;131.15;120.35;;;17.60;81.80;;;;;;4993713;28;20054;-79
2022/05/21 12:01:53;;;;;;;127.85;117.28;;;17.60;80.50;;;;;;4977340;28;20520;-77
2022/05/21 12:04:47;;;;;;;134.40;123.40;;;17.60;79.50;;;;;;5010340;28;20058;-77
2022/05/21 12:07:17;;;;;;;131.40;120.40;;;17.60;80.30;;;;;;4993108;28;20089;-76
2022/05/21 12:10:03;;;;;;;129.25;118.00;;;17.60;80.20;;;;;;4997566;28;20137;-79
2022/05/21 12:12:30;;;;;;;128.02;117.35;;;17.70;78.20;;;;;;4998768;28;20121;-77
2022/05/21 12:15:13;;;;;;;130.70;120.30;;;17.70;79.30;;;;;;4997978;28;20046;-76
2022/05/21 12:17:58;;;;;;;131.15;120.15;;;17.70;78.90;;;;;;5012226;28;20076;-77
2022/05/21 12:20:43;;;;;;;130.73;120.05;;;17.80;78.70;;;;;;4992583;28;20114;-75
2022/05/21 12:23:15;;;;;;;131.88;120.97;;;17.70;78.10;;;;;;4966934;28;20130;-78
2022/05/21 12:25:58;;;;;;;131.15;120.35;;;17.70;79.40;;;;;;4992106;28;20078;-76
2022/05/21 12:28:45;;;;;;;132.23;120.90;;;17.70;78.80;;;;;;4983805;28;20090;-76
2022/05/21 12:31:21;;;;;;;132.80;121.85;;;17.80;79.20;;;;;;5005860;28;20047;-77
2022/05/21 12:33:54;;;;;;;;;;;17.90;78.00;;;;;;4978691;28;20525;-75
2022/05/21 12:36:40;;;;;;;129.27;118.47;;;17.90;77.80;;;;;;4996883;28;19925;-75
2022/05/21 12:39:12;;;;;;;133.15;122.10;;;17.90;77.10;;;;;;4985295;28;20061;-78
2022/05/21 12:41:43;;;;;;;134.27;123.25;;;17.90;76.90;;;;;;4997965;28;20164;-76
2022/05/21 12:44:11;;;;;;;131.57;120.78;;;17.90;76.10;;;;;;4997605;28;20085;-76
2022/05/21 12:46:42;;;;;;;132.45;121.80;;;17.90;76.40;;;;;;4997478;28;20046;-75
2022/05/21 12:49:11;;;;;;;129.50;119.00;;;17.90;77.40;;;;;;5014765;28;20055;-76
2022/05/21 12:51:42;;;;;;;134.57;123.53;;;17.80;77.90;;;;;;4997813;28;20133;-75
2022/05/21 12:54:19;;;;;;;133.27;122.38;;;17.90;77.80;;;;;;4997291;28;20830;-75
2022/05/21 12:56:46;;;;;;;134.35;123.50;;;18.00;77.30;;;;;;4995726;28;20137;-76
2022/05/21 12:59:18;;;;;;;133.32;122.22;;;18.00;77.80;;;;;;4997459;28;20059;-75
2022/05/21 13:01:54;;;;;;;132.98;122.03;;;18.10;78.40;;;;;;4961434;28;20051;-76
2022/05/21 13:04:23;;;;;;;130.02;119.38;;;18.10;77.00;;;;;;4977985;28;20062;-75